sensor_id;sensor_type;location;lat;lon;timestamp;P1;durP1;ratioP1;P2;durP2;ratioP2
43620;SDS011;29213;50.770;7.298;2023-01-16T00:00:13;3.20;;;1.00;;
43620;SDS011;29213;50.770;7.298;2023-01-16T00:02:40;3.22;;;0.95;;
43620;SDS011;29213;50.770;7.298;2023-01-16T00:05:06;2.00;;;0.90;;
43620;SDS011;29213;50.770;7.298;2023-01-16T00:07:31;2.78;;;1.00;;
43620;SDS011;29213;50.770;7.298;2023-01-16T00:09:57;3.83;;;1.27;;
43620;SDS011;29213;50.770;7.298;2023-01-16T00:12:22;5.72;;;1.48;;
43620;SDS011;29213;50.770;7.298;2023-01-16T00:14:48;3.90;;;1.10;;
43620;SDS011;29213;50.770;7.298;2023-01-16T00:17:13;3.60;;;1.13;;
43620;SDS011;29213;50.770;7.298;2023-01-16T00:19:38;4.57;;;1.00;;
43620;SDS011;29213;50.770;7.298;2023-01-16T00:22:04;2.85;;;1.10;;
43620;SDS011;29213;50.770;7.298;2023-01-16T00:24:29;5.45;;;1.15;;
43620;SDS011;29213;50.770;7.298;2023-01-16T00:26:55;2.92;;;0.98;;
43620;SDS011;29213;50.770;7.298;2023-01-16T00:29:20;3.38;;;0.93;;
43620;SDS011;29213;50.770;7.298;2023-01-16T00:31:45;3.28;;;1.13;;
43620;SDS011;29213;50.770;7.298;2023-01-16T00:34:11;2.78;;;0.90;;
43620;SDS011;29213;50.770;7.298;2023-01-16T00:36:36;3.75;;;1.00;;
43620;SDS011;29213;50.770;7.298;2023-01-16T00:39:03;3.17;;;1.30;;
43620;SDS011;29213;50.770;7.298;2023-01-16T00:41:29;2.38;;;1.00;;
43620;SDS011;29213;50.770;7.298;2023-01-16T00:43:54;5.38;;;1.10;;
43620;SDS011;29213;50.770;7.298;2023-01-16T00:46:23;2.70;;;0.80;;
43620;SDS011;29213;50.770;7.298;2023-01-16T00:48:54;2.33;;;0.90;;
43620;SDS011;29213;50.770;7.298;2023-01-16T00:51:20;2.60;;;0.93;;
43620;SDS011;29213;50.770;7.298;2023-01-16T00:53:45;4.05;;;0.90;;
43620;SDS011;29213;50.770;7.298;2023-01-16T00:56:10;2.28;;;1.02;;
43620;SDS011;29213;50.770;7.298;2023-01-16T00:58:36;3.80;;;1.00;;
43620;SDS011;29213;50.770;7.298;2023-01-16T01:01:01;2.72;;;1.00;;
43620;SDS011;29213;50.770;7.298;2023-01-16T01:03:27;3.42;;;1.00;;
43620;SDS011;29213;50.770;7.298;2023-01-16T01:05:53;1.55;;;0.70;;
43620;SDS011;29213;50.770;7.298;2023-01-16T01:08:19;2.78;;;0.70;;
43620;SDS011;29213;50.770;7.298;2023-01-16T01:10:44;2.70;;;0.80;;
43620;SDS011;29213;50.770;7.298;2023-01-16T01:13:10;2.33;;;0.93;;
43620;SDS011;29213;50.770;7.298;2023-01-16T01:15:36;2.78;;;0.80;;
43620;SDS011;29213;50.770;7.298;2023-01-16T01:18:01;2.25;;;0.90;;
43620;SDS011;29213;50.770;7.298;2023-01-16T01:20:27;2.75;;;0.90;;
43620;SDS011;29213;50.770;7.298;2023-01-16T01:22:53;1.85;;;0.85;;
43620;SDS011;29213;50.770;7.298;2023-01-16T01:25:19;2.40;;;0.70;;
43620;SDS011;29213;50.770;7.298;2023-01-16T01:27:44;4.78;;;0.88;;
43620;SDS011;29213;50.770;7.298;2023-01-16T01:30:10;2.20;;;0.85;;
43620;SDS011;29213;50.770;7.298;2023-01-16T01:32:36;4.28;;;0.98;;
43620;SDS011;29213;50.770;7.298;2023-01-16T01:35:05;2.58;;;0.90;;
43620;SDS011;29213;50.770;7.298;2023-01-16T01:37:32;2.55;;;0.80;;
43620;SDS011;29213;50.770;7.298;2023-01-16T01:39:58;3.15;;;0.85;;
43620;SDS011;29213;50.770;7.298;2023-01-16T01:42:23;1.33;;;0.70;;
43620;SDS011;29213;50.770;7.298;2023-01-16T01:47:53;2.78;;;0.80;;
43620;SDS011;29213;50.770;7.298;2023-01-16T01:50:25;2.60;;;0.77;;
43620;SDS011;29213;50.770;7.298;2023-01-16T01:53:14;1.95;;;0.75;;
43620;SDS011;29213;50.770;7.298;2023-01-16T01:55:44;2.90;;;0.80;;
43620;SDS011;29213;50.770;7.298;2023-01-16T01:58:11;2.60;;;0.70;;
43620;SDS011;29213;50.770;7.298;2023-01-16T02:00:44;2.45;;;0.80;;
43620;SDS011;29213;50.770;7.298;2023-01-16T02:03:10;2.75;;;0.90;;
43620;SDS011;29213;50.770;7.298;2023-01-16T02:05:42;1.42;;;0.60;;
43620;SDS011;29213;50.770;7.298;2023-01-16T02:10:43;2.30;;;0.80;;
43620;SDS011;29213;50.770;7.298;2023-01-16T02:13:12;2.53;;;0.90;;
43620;SDS011;29213;50.770;7.298;2023-01-16T02:15:38;2.35;;;0.70;;
43620;SDS011;29213;50.770;7.298;2023-01-16T02:18:26;2.05;;;0.90;;
43620;SDS011;29213;50.770;7.298;2023-01-16T02:29:28;2.90;;;0.90;;
43620;SDS011;29213;50.770;7.298;2023-01-16T02:34:53;2.65;;;0.80;;
43620;SDS011;29213;50.770;7.298;2023-01-16T02:40:16;2.65;;;0.80;;
43620;SDS011;29213;50.770;7.298;2023-01-16T02:46:05;3.17;;;0.80;;
43620;SDS011;29213;50.770;7.298;2023-01-16T02:51:06;2.97;;;0.90;;
43620;SDS011;29213;50.770;7.298;2023-01-16T02:54:42;2.78;;;0.77;;
43620;SDS011;29213;50.770;7.298;2023-01-16T02:57:06;2.25;;;0.98;;
43620;SDS011;29213;50.770;7.298;2023-01-16T02:59:37;1.85;;;0.80;;
43620;SDS011;29213;50.770;7.298;2023-01-16T03:02:06;3.63;;;0.90;;
43620;SDS011;29213;50.770;7.298;2023-01-16T03:04:50;4.03;;;0.85;;
43620;SDS011;29213;50.770;7.298;2023-01-16T03:07:28;3.00;;;0.80;;
43620;SDS011;29213;50.770;7.298;2023-01-16T03:24:25;2.83;;;0.90;;
43620;SDS011;29213;50.770;7.298;2023-01-16T03:27:00;3.03;;;1.00;;
43620;SDS011;29213;50.770;7.298;2023-01-16T03:29:36;3.63;;;1.08;;
43620;SDS011;29213;50.770;7.298;2023-01-16T03:35:01;3.63;;;1.10;;
43620;SDS011;29213;50.770;7.298;2023-01-16T03:37:36;3.70;;;1.10;;
43620;SDS011;29213;50.770;7.298;2023-01-16T03:40:07;2.20;;;0.90;;
43620;SDS011;29213;50.770;7.298;2023-01-16T03:42:41;2.92;;;1.00;;
43620;SDS011;29213;50.770;7.298;2023-01-16T03:45:15;3.05;;;0.90;;
43620;SDS011;29213;50.770;7.298;2023-01-16T03:47:49;4.68;;;1.17;;
43620;SDS011;29213;50.770;7.298;2023-01-16T03:50:21;4.13;;;1.27;;
43620;SDS011;29213;50.770;7.298;2023-01-16T03:52:51;4.00;;;1.17;;
43620;SDS011;29213;50.770;7.298;2023-01-16T03:55:25;3.33;;;1.10;;
43620;SDS011;29213;50.770;7.298;2023-01-16T03:58:04;2.25;;;0.90;;
43620;SDS011;29213;50.770;7.298;2023-01-16T04:00:51;2.55;;;1.08;;
43620;SDS011;29213;50.770;7.298;2023-01-16T04:03:36;3.08;;;1.02;;
43620;SDS011;29213;50.770;7.298;2023-01-16T04:06:08;3.65;;;1.00;;
43620;SDS011;29213;50.770;7.298;2023-01-16T04:08:37;3.80;;;1.00;;
43620;SDS011;29213;50.770;7.298;2023-01-16T04:11:05;3.33;;;1.00;;
43620;SDS011;29213;50.770;7.298;2023-01-16T04:13:33;3.78;;;0.98;;
43620;SDS011;29213;50.770;7.298;2023-01-16T04:16:02;4.45;;;1.00;;
43620;SDS011;29213;50.770;7.298;2023-01-16T04:18:31;2.80;;;1.00;;
43620;SDS011;29213;50.770;7.298;2023-01-16T04:20:58;3.00;;;1.23;;
43620;SDS011;29213;50.770;7.298;2023-01-16T04:23:24;4.20;;;1.30;;
43620;SDS011;29213;50.770;7.298;2023-01-16T04:25:49;3.83;;;1.20;;
43620;SDS011;29213;50.770;7.298;2023-01-16T04:28:15;2.67;;;0.80;;
43620;SDS011;29213;50.770;7.298;2023-01-16T04:30:41;2.75;;;0.90;;
43620;SDS011;29213;50.770;7.298;2023-01-16T04:33:06;3.22;;;1.00;;
43620;SDS011;29213;50.770;7.298;2023-01-16T04:35:32;2.45;;;0.70;;
43620;SDS011;29213;50.770;7.298;2023-01-16T04:37:58;2.63;;;0.80;;
43620;SDS011;29213;50.770;7.298;2023-01-16T04:40:23;3.30;;;1.10;;
43620;SDS011;29213;50.770;7.298;2023-01-16T04:42:49;2.67;;;1.00;;
43620;SDS011;29213;50.770;7.298;2023-01-16T04:45:14;3.60;;;0.90;;
43620;SDS011;29213;50.770;7.298;2023-01-16T04:47:40;3.00;;;0.82;;
43620;SDS011;29213;50.770;7.298;2023-01-16T04:50:10;3.50;;;0.98;;
43620;SDS011;29213;50.770;7.298;2023-01-16T04:52:35;2.05;;;0.70;;
43620;SDS011;29213;50.770;7.298;2023-01-16T04:55:01;2.10;;;0.80;;
43620;SDS011;29213;50.770;7.298;2023-01-16T04:57:26;4.15;;;0.90;;
43620;SDS011;29213;50.770;7.298;2023-01-16T04:59:51;2.33;;;0.70;;
43620;SDS011;29213;50.770;7.298;2023-01-16T05:02:17;2.75;;;0.80;;
43620;SDS011;29213;50.770;7.298;2023-01-16T05:04:42;1.77;;;0.73;;
43620;SDS011;29213;50.770;7.298;2023-01-16T05:07:07;2.28;;;0.75;;
43620;SDS011;29213;50.770;7.298;2023-01-16T05:09:33;4.15;;;0.98;;
43620;SDS011;29213;50.770;7.298;2023-01-16T05:11:58;3.92;;;0.82;;
43620;SDS011;29213;50.770;7.298;2023-01-16T05:14:24;3.10;;;0.90;;
43620;SDS011;29213;50.770;7.298;2023-01-16T05:16:49;1.67;;;0.70;;
43620;SDS011;29213;50.770;7.298;2023-01-16T05:19:14;3.97;;;0.93;;
43620;SDS011;29213;50.770;7.298;2023-01-16T05:21:40;3.50;;;1.00;;
43620;SDS011;29213;50.770;7.298;2023-01-16T05:24:05;4.63;;;1.00;;
43620;SDS011;29213;50.770;7.298;2023-01-16T05:26:31;3.40;;;1.10;;
43620;SDS011;29213;50.770;7.298;2023-01-16T05:28:57;3.08;;;0.93;;
43620;SDS011;29213;50.770;7.298;2023-01-16T05:31:22;3.40;;;0.82;;
43620;SDS011;29213;50.770;7.298;2023-01-16T05:33:48;3.30;;;1.00;;
43620;SDS011;29213;50.770;7.298;2023-01-16T05:36:13;3.80;;;1.40;;
43620;SDS011;29213;50.770;7.298;2023-01-16T05:38:39;3.50;;;1.30;;
43620;SDS011;29213;50.770;7.298;2023-01-16T05:41:04;3.35;;;1.08;;
43620;SDS011;29213;50.770;7.298;2023-01-16T05:43:29;2.90;;;1.20;;
43620;SDS011;29213;50.770;7.298;2023-01-16T05:45:55;3.38;;;1.10;;
43620;SDS011;29213;50.770;7.298;2023-01-16T05:48:20;2.75;;;1.30;;
43620;SDS011;29213;50.770;7.298;2023-01-16T05:50:46;3.15;;;1.10;;
43620;SDS011;29213;50.770;7.298;2023-01-16T05:53:11;1.77;;;0.82;;
43620;SDS011;29213;50.770;7.298;2023-01-16T05:55:41;3.65;;;1.13;;
43620;SDS011;29213;50.770;7.298;2023-01-16T05:58:09;4.25;;;1.17;;
43620;SDS011;29213;50.770;7.298;2023-01-16T06:00:35;2.53;;;1.00;;
43620;SDS011;29213;50.770;7.298;2023-01-16T06:03:01;2.45;;;1.00;;
43620;SDS011;29213;50.770;7.298;2023-01-16T06:05:26;3.13;;;1.20;;
43620;SDS011;29213;50.770;7.298;2023-01-16T06:07:54;4.78;;;1.17;;
43620;SDS011;29213;50.770;7.298;2023-01-16T06:10:21;3.97;;;1.20;;
43620;SDS011;29213;50.770;7.298;2023-01-16T06:12:47;5.68;;;1.20;;
43620;SDS011;29213;50.770;7.298;2023-01-16T06:15:12;4.35;;;1.20;;
43620;SDS011;29213;50.770;7.298;2023-01-16T06:17:38;3.03;;;1.30;;
43620;SDS011;29213;50.770;7.298;2023-01-16T06:20:03;3.58;;;1.20;;
43620;SDS011;29213;50.770;7.298;2023-01-16T06:22:29;2.90;;;1.10;;
43620;SDS011;29213;50.770;7.298;2023-01-16T06:24:54;3.33;;;1.30;;
43620;SDS011;29213;50.770;7.298;2023-01-16T06:27:20;3.80;;;1.30;;
43620;SDS011;29213;50.770;7.298;2023-01-16T06:29:45;3.78;;;1.20;;
43620;SDS011;29213;50.770;7.298;2023-01-16T06:32:11;4.15;;;1.27;;
43620;SDS011;29213;50.770;7.298;2023-01-16T06:34:36;4.45;;;1.20;;
43620;SDS011;29213;50.770;7.298;2023-01-16T06:37:01;3.13;;;1.40;;
43620;SDS011;29213;50.770;7.298;2023-01-16T06:39:27;3.28;;;1.33;;
43620;SDS011;29213;50.770;7.298;2023-01-16T06:41:52;3.17;;;1.15;;
43620;SDS011;29213;50.770;7.298;2023-01-16T06:44:18;4.97;;;1.33;;
43620;SDS011;29213;50.770;7.298;2023-01-16T06:46:43;4.10;;;1.30;;
43620;SDS011;29213;50.770;7.298;2023-01-16T06:49:09;4.80;;;1.60;;
43620;SDS011;29213;50.770;7.298;2023-01-16T06:51:35;4.18;;;1.20;;
43620;SDS011;29213;50.770;7.298;2023-01-16T06:54:00;5.63;;;1.60;;
43620;SDS011;29213;50.770;7.298;2023-01-16T06:56:28;3.72;;;1.20;;
43620;SDS011;29213;50.770;7.298;2023-01-16T06:58:54;3.50;;;1.23;;
43620;SDS011;29213;50.770;7.298;2023-01-16T07:01:19;5.45;;;1.50;;
43620;SDS011;29213;50.770;7.298;2023-01-16T07:03:45;2.75;;;1.23;;
43620;SDS011;29213;50.770;7.298;2023-01-16T07:06:10;4.05;;;1.27;;
43620;SDS011;29213;50.770;7.298;2023-01-16T07:08:38;5.68;;;1.20;;
43620;SDS011;29213;50.770;7.298;2023-01-16T07:11:04;5.93;;;1.40;;
43620;SDS011;29213;50.770;7.298;2023-01-16T07:13:29;4.32;;;1.27;;
43620;SDS011;29213;50.770;7.298;2023-01-16T07:15:55;3.05;;;1.02;;
43620;SDS011;29213;50.770;7.298;2023-01-16T07:18:39;3.95;;;1.10;;
43620;SDS011;29213;50.770;7.298;2023-01-16T07:21:17;5.20;;;1.50;;
43620;SDS011;29213;50.770;7.298;2023-01-16T07:24:08;3.33;;;1.40;;
43620;SDS011;29213;50.770;7.298;2023-01-16T07:26:39;4.25;;;1.52;;
43620;SDS011;29213;50.770;7.298;2023-01-16T07:29:06;5.85;;;2.00;;
43620;SDS011;29213;50.770;7.298;2023-01-16T07:31:32;6.50;;;1.52;;
43620;SDS011;29213;50.770;7.298;2023-01-16T07:33:59;5.05;;;1.70;;
43620;SDS011;29213;50.770;7.298;2023-01-16T07:36:24;5.97;;;1.63;;
43620;SDS011;29213;50.770;7.298;2023-01-16T07:38:49;5.70;;;1.40;;
43620;SDS011;29213;50.770;7.298;2023-01-16T07:41:15;5.70;;;2.00;;
43620;SDS011;29213;50.770;7.298;2023-01-16T07:43:40;6.00;;;1.60;;
43620;SDS011;29213;50.770;7.298;2023-01-16T07:46:06;4.47;;;1.80;;
43620;SDS011;29213;50.770;7.298;2023-01-16T07:48:32;4.38;;;1.40;;
43620;SDS011;29213;50.770;7.298;2023-01-16T07:50:58;3.67;;;1.33;;
43620;SDS011;29213;50.770;7.298;2023-01-16T07:53:25;5.03;;;1.40;;
43620;SDS011;29213;50.770;7.298;2023-01-16T07:55:53;4.72;;;1.70;;
43620;SDS011;29213;50.770;7.298;2023-01-16T07:58:21;5.70;;;1.50;;
43620;SDS011;29213;50.770;7.298;2023-01-16T08:00:47;4.65;;;1.50;;
43620;SDS011;29213;50.770;7.298;2023-01-16T08:03:13;4.45;;;1.40;;
43620;SDS011;29213;50.770;7.298;2023-01-16T08:05:39;4.93;;;1.80;;
43620;SDS011;29213;50.770;7.298;2023-01-16T08:08:05;3.97;;;1.63;;
43620;SDS011;29213;50.770;7.298;2023-01-16T08:10:31;5.63;;;1.83;;
43620;SDS011;29213;50.770;7.298;2023-01-16T08:12:56;4.97;;;1.58;;
43620;SDS011;29213;50.770;7.298;2023-01-16T08:15:22;5.50;;;1.00;;
43620;SDS011;29213;50.770;7.298;2023-01-16T08:17:47;5.40;;;1.50;;
43620;SDS011;29213;50.770;7.298;2023-01-16T08:20:12;6.40;;;1.30;;
43620;SDS011;29213;50.770;7.298;2023-01-16T08:22:42;4.88;;;1.25;;
43620;SDS011;29213;50.770;7.298;2023-01-16T08:27:34;3.22;;;1.00;;
43620;SDS011;29213;50.770;7.298;2023-01-16T08:29:59;3.67;;;1.00;;
43620;SDS011;29213;50.770;7.298;2023-01-16T08:32:25;3.50;;;1.00;;
43620;SDS011;29213;50.770;7.298;2023-01-16T08:34:50;5.10;;;1.30;;
43620;SDS011;29213;50.770;7.298;2023-01-16T08:37:15;3.22;;;1.05;;
43620;SDS011;29213;50.770;7.298;2023-01-16T08:39:41;4.55;;;1.10;;
43620;SDS011;29213;50.770;7.298;2023-01-16T08:42:06;3.50;;;1.05;;
43620;SDS011;29213;50.770;7.298;2023-01-16T08:44:50;2.45;;;1.00;;
43620;SDS011;29213;50.770;7.298;2023-01-16T08:47:34;3.38;;;1.20;;
43620;SDS011;29213;50.770;7.298;2023-01-16T08:50:20;3.35;;;1.13;;
43620;SDS011;29213;50.770;7.298;2023-01-16T08:53:05;3.45;;;1.33;;
43620;SDS011;29213;50.770;7.298;2023-01-16T08:55:31;6.80;;;1.20;;
43620;SDS011;29213;50.770;7.298;2023-01-16T08:57:56;2.67;;;1.02;;
43620;SDS011;29213;50.770;7.298;2023-01-16T09:00:24;4.63;;;1.15;;
43620;SDS011;29213;50.770;7.298;2023-01-16T09:02:51;3.33;;;1.38;;
43620;SDS011;29213;50.770;7.298;2023-01-16T09:05:17;4.88;;;1.90;;
43620;SDS011;29213;50.770;7.298;2023-01-16T09:07:42;3.63;;;1.30;;
43620;SDS011;29213;50.770;7.298;2023-01-16T09:10:08;2.65;;;1.00;;
43620;SDS011;29213;50.770;7.298;2023-01-16T09:12:34;3.38;;;1.20;;
43620;SDS011;29213;50.770;7.298;2023-01-16T09:15:18;2.58;;;1.30;;
43620;SDS011;29213;50.770;7.298;2023-01-16T09:17:44;2.97;;;1.00;;
43620;SDS011;29213;50.770;7.298;2023-01-16T09:20:10;3.35;;;1.20;;
43620;SDS011;29213;50.770;7.298;2023-01-16T09:22:35;3.67;;;1.00;;
43620;SDS011;29213;50.770;7.298;2023-01-16T09:25:01;3.70;;;1.10;;
43620;SDS011;29213;50.770;7.298;2023-01-16T09:27:27;2.28;;;0.93;;
43620;SDS011;29213;50.770;7.298;2023-01-16T09:29:52;3.50;;;1.25;;
43620;SDS011;29213;50.770;7.298;2023-01-16T09:32:18;2.13;;;0.90;;
43620;SDS011;29213;50.770;7.298;2023-01-16T09:34:44;4.07;;;1.10;;
43620;SDS011;29213;50.770;7.298;2023-01-16T09:37:10;3.00;;;0.98;;
43620;SDS011;29213;50.770;7.298;2023-01-16T09:39:35;4.28;;;1.30;;
43620;SDS011;29213;50.770;7.298;2023-01-16T09:42:06;2.90;;;0.98;;
43620;SDS011;29213;50.770;7.298;2023-01-16T09:45:06;2.90;;;1.17;;
43620;SDS011;29213;50.770;7.298;2023-01-16T09:47:39;3.38;;;1.05;;
43620;SDS011;29213;50.770;7.298;2023-01-16T09:50:11;3.95;;;1.00;;
43620;SDS011;29213;50.770;7.298;2023-01-16T09:52:41;3.10;;;1.00;;
43620;SDS011;29213;50.770;7.298;2023-01-16T09:55:32;2.50;;;1.00;;
43620;SDS011;29213;50.770;7.298;2023-01-16T09:58:25;3.00;;;0.90;;
43620;SDS011;29213;50.770;7.298;2023-01-16T10:01:06;2.25;;;0.80;;
43620;SDS011;29213;50.770;7.298;2023-01-16T10:03:40;3.65;;;1.05;;
43620;SDS011;29213;50.770;7.298;2023-01-16T10:14:07;2.40;;;1.10;;
43620;SDS011;29213;50.770;7.298;2023-01-16T10:16:56;1.90;;;0.82;;
43620;SDS011;29213;50.770;7.298;2023-01-16T10:30:55;1.45;;;0.80;;
43620;SDS011;29213;50.770;7.298;2023-01-16T10:33:28;2.55;;;0.90;;
43620;SDS011;29213;50.770;7.298;2023-01-16T10:35:57;2.17;;;0.88;;
43620;SDS011;29213;50.770;7.298;2023-01-16T10:38:44;1.65;;;0.80;;
43620;SDS011;29213;50.770;7.298;2023-01-16T10:41:29;2.85;;;0.90;;
43620;SDS011;29213;50.770;7.298;2023-01-16T10:47:10;2.35;;;0.75;;
43620;SDS011;29213;50.770;7.298;2023-01-16T10:49:55;2.08;;;0.93;;
43620;SDS011;29213;50.770;7.298;2023-01-16T10:52:20;1.88;;;0.70;;
43620;SDS011;29213;50.770;7.298;2023-01-16T10:54:47;3.90;;;0.85;;
43620;SDS011;29213;50.770;7.298;2023-01-16T10:57:14;1.52;;;0.80;;
43620;SDS011;29213;50.770;7.298;2023-01-16T10:59:42;1.67;;;0.80;;
43620;SDS011;29213;50.770;7.298;2023-01-16T11:04:53;2.30;;;1.10;;
43620;SDS011;29213;50.770;7.298;2023-01-16T11:07:20;1.92;;;0.90;;
43620;SDS011;29213;50.770;7.298;2023-01-16T11:09:46;2.55;;;0.93;;
43620;SDS011;29213;50.770;7.298;2023-01-16T11:12:22;4.72;;;1.80;;
43620;SDS011;29213;50.770;7.298;2023-01-16T11:15:20;3.35;;;1.58;;
43620;SDS011;29213;50.770;7.298;2023-01-16T11:20:59;3.15;;;1.08;;
43620;SDS011;29213;50.770;7.298;2023-01-16T11:23:38;5.43;;;1.00;;
43620;SDS011;29213;50.770;7.298;2023-01-16T11:26:06;1.70;;;0.85;;
43620;SDS011;29213;50.770;7.298;2023-01-16T11:28:33;2.08;;;0.85;;
43620;SDS011;29213;50.770;7.298;2023-01-16T11:31:00;2.28;;;0.80;;
43620;SDS011;29213;50.770;7.298;2023-01-16T11:33:34;1.77;;;0.80;;
43620;SDS011;29213;50.770;7.298;2023-01-16T11:36:04;3.50;;;0.90;;
43620;SDS011;29213;50.770;7.298;2023-01-16T11:38:32;3.08;;;1.00;;
43620;SDS011;29213;50.770;7.298;2023-01-16T11:41:00;2.38;;;0.88;;
43620;SDS011;29213;50.770;7.298;2023-01-16T11:43:29;1.65;;;0.80;;
43620;SDS011;29213;50.770;7.298;2023-01-16T11:48:55;1.95;;;0.80;;
43620;SDS011;29213;50.770;7.298;2023-01-16T11:51:26;2.53;;;1.10;;
43620;SDS011;29213;50.770;7.298;2023-01-16T11:53:54;2.30;;;1.00;;
43620;SDS011;29213;50.770;7.298;2023-01-16T11:59:05;2.55;;;0.98;;
43620;SDS011;29213;50.770;7.298;2023-01-16T12:01:36;3.70;;;1.25;;
43620;SDS011;29213;50.770;7.298;2023-01-16T12:04:32;2.45;;;0.90;;
43620;SDS011;29213;50.770;7.298;2023-01-16T12:15:24;3.47;;;1.20;;
43620;SDS011;29213;50.770;7.298;2023-01-16T12:18:11;1.65;;;0.80;;
43620;SDS011;29213;50.770;7.298;2023-01-16T12:28:30;2.92;;;1.10;;
43620;SDS011;29213;50.770;7.298;2023-01-16T12:39:15;4.68;;;1.10;;
43620;SDS011;29213;50.770;7.298;2023-01-16T12:42:14;1.80;;;0.85;;
43620;SDS011;29213;50.770;7.298;2023-01-16T12:45:15;1.95;;;0.90;;
43620;SDS011;29213;50.770;7.298;2023-01-16T12:53:17;2.45;;;1.08;;
43620;SDS011;29213;50.770;7.298;2023-01-16T12:56:34;2.45;;;0.93;;
43620;SDS011;29213;50.770;7.298;2023-01-16T12:59:04;2.63;;;1.00;;
43620;SDS011;29213;50.770;7.298;2023-01-16T13:01:41;1.83;;;1.00;;
43620;SDS011;29213;50.770;7.298;2023-01-16T13:06:48;2.75;;;0.80;;
43620;SDS011;29213;50.770;7.298;2023-01-16T13:09:18;1.60;;;0.80;;
43620;SDS011;29213;50.770;7.298;2023-01-16T13:11:56;1.95;;;0.80;;
43620;SDS011;29213;50.770;7.298;2023-01-16T13:14:45;2.15;;;1.00;;
43620;SDS011;29213;50.770;7.298;2023-01-16T13:17:24;2.13;;;0.95;;
43620;SDS011;29213;50.770;7.298;2023-01-16T13:19:56;3.47;;;1.00;;
43620;SDS011;29213;50.770;7.298;2023-01-16T13:22:27;2.05;;;0.98;;
43620;SDS011;29213;50.770;7.298;2023-01-16T13:25:00;1.15;;;0.70;;
43620;SDS011;29213;50.770;7.298;2023-01-16T13:27:39;2.63;;;1.00;;
43620;SDS011;29213;50.770;7.298;2023-01-16T13:30:16;2.78;;;1.10;;
43620;SDS011;29213;50.770;7.298;2023-01-16T13:32:45;2.15;;;0.90;;
43620;SDS011;29213;50.770;7.298;2023-01-16T13:35:19;3.55;;;1.33;;
43620;SDS011;29213;50.770;7.298;2023-01-16T13:43:21;1.45;;;0.70;;
43620;SDS011;29213;50.770;7.298;2023-01-16T13:46:13;2.30;;;0.95;;
43620;SDS011;29213;50.770;7.298;2023-01-16T13:48:38;4.15;;;1.00;;
43620;SDS011;29213;50.770;7.298;2023-01-16T13:51:14;3.00;;;1.20;;
43620;SDS011;29213;50.770;7.298;2023-01-16T13:53:41;2.75;;;1.23;;
43620;SDS011;29213;50.770;7.298;2023-01-16T13:56:15;3.00;;;0.80;;
43620;SDS011;29213;50.770;7.298;2023-01-16T13:58:49;2.03;;;1.10;;
43620;SDS011;29213;50.770;7.298;2023-01-16T14:01:35;3.75;;;1.30;;
43620;SDS011;29213;50.770;7.298;2023-01-16T14:04:10;2.42;;;1.00;;
43620;SDS011;29213;50.770;7.298;2023-01-16T14:06:44;3.08;;;0.90;;
43620;SDS011;29213;50.770;7.298;2023-01-16T14:09:22;2.40;;;0.90;;
43620;SDS011;29213;50.770;7.298;2023-01-16T14:14:27;2.70;;;1.10;;
43620;SDS011;29213;50.770;7.298;2023-01-16T14:17:13;2.67;;;0.95;;
43620;SDS011;29213;50.770;7.298;2023-01-16T14:19:53;2.20;;;1.02;;
43620;SDS011;29213;50.770;7.298;2023-01-16T14:22:40;2.30;;;0.90;;
43620;SDS011;29213;50.770;7.298;2023-01-16T14:25:25;4.05;;;1.25;;
43620;SDS011;29213;50.770;7.298;2023-01-16T14:27:53;3.33;;;1.05;;
43620;SDS011;29213;50.770;7.298;2023-01-16T14:30:23;1.98;;;0.98;;
43620;SDS011;29213;50.770;7.298;2023-01-16T14:32:52;2.65;;;1.00;;
43620;SDS011;29213;50.770;7.298;2023-01-16T14:35:27;2.63;;;1.10;;
43620;SDS011;29213;50.770;7.298;2023-01-16T14:40:45;3.33;;;1.20;;
43620;SDS011;29213;50.770;7.298;2023-01-16T14:43:32;4.18;;;1.50;;
43620;SDS011;29213;50.770;7.298;2023-01-16T14:52:43;3.60;;;1.88;;
43620;SDS011;29213;50.770;7.298;2023-01-16T14:55:36;3.60;;;1.70;;
43620;SDS011;29213;50.770;7.298;2023-01-16T14:58:07;5.22;;;1.90;;
43620;SDS011;29213;50.770;7.298;2023-01-16T15:00:36;4.40;;;1.50;;
43620;SDS011;29213;50.770;7.298;2023-01-16T15:03:09;3.88;;;1.55;;
43620;SDS011;29213;50.770;7.298;2023-01-16T15:05:45;3.83;;;1.45;;
43620;SDS011;29213;50.770;7.298;2023-01-16T15:08:26;5.60;;;2.47;;
43620;SDS011;29213;50.770;7.298;2023-01-16T15:10:56;2.67;;;1.20;;
43620;SDS011;29213;50.770;7.298;2023-01-16T15:13:45;3.45;;;1.70;;
43620;SDS011;29213;50.770;7.298;2023-01-16T15:16:29;2.88;;;1.20;;
43620;SDS011;29213;50.770;7.298;2023-01-16T15:19:15;2.40;;;1.20;;
43620;SDS011;29213;50.770;7.298;2023-01-16T15:22:00;3.10;;;1.20;;
43620;SDS011;29213;50.770;7.298;2023-01-16T15:24:25;2.47;;;1.10;;
43620;SDS011;29213;50.770;7.298;2023-01-16T15:27:07;2.70;;;1.15;;
43620;SDS011;29213;50.770;7.298;2023-01-16T15:29:44;2.38;;;1.25;;
43620;SDS011;29213;50.770;7.298;2023-01-16T15:32:19;2.95;;;1.15;;
43620;SDS011;29213;50.770;7.298;2023-01-16T15:34:47;2.20;;;1.20;;
43620;SDS011;29213;50.770;7.298;2023-01-16T15:37:29;3.10;;;1.00;;
43620;SDS011;29213;50.770;7.298;2023-01-16T15:39:56;1.52;;;0.80;;
43620;SDS011;29213;50.770;7.298;2023-01-16T15:42:25;1.92;;;0.90;;
43620;SDS011;29213;50.770;7.298;2023-01-16T15:45:19;2.20;;;1.05;;
43620;SDS011;29213;50.770;7.298;2023-01-16T15:50:56;2.42;;;0.90;;
43620;SDS011;29213;50.770;7.298;2023-01-16T15:53:28;2.42;;;1.02;;
43620;SDS011;29213;50.770;7.298;2023-01-16T15:56:03;4.32;;;1.10;;
43620;SDS011;29213;50.770;7.298;2023-01-16T15:58:30;2.20;;;1.00;;
43620;SDS011;29213;50.770;7.298;2023-01-16T16:00:57;1.70;;;0.90;;
43620;SDS011;29213;50.770;7.298;2023-01-16T16:03:29;2.55;;;1.08;;
43620;SDS011;29213;50.770;7.298;2023-01-16T16:06:04;1.73;;;0.80;;
43620;SDS011;29213;50.770;7.298;2023-01-16T16:08:32;2.60;;;0.93;;
43620;SDS011;29213;50.770;7.298;2023-01-16T16:11:03;1.90;;;0.80;;
43620;SDS011;29213;50.770;7.298;2023-01-16T16:13:50;3.20;;;0.98;;
43620;SDS011;29213;50.770;7.298;2023-01-16T16:16:17;4.68;;;2.20;;
43620;SDS011;29213;50.770;7.298;2023-01-16T16:19:03;2.85;;;1.63;;
43620;SDS011;29213;50.770;7.298;2023-01-16T16:24:23;3.00;;;1.45;;
43620;SDS011;29213;50.770;7.298;2023-01-16T16:26:48;2.83;;;1.20;;
43620;SDS011;29213;50.770;7.298;2023-01-16T16:29:17;2.97;;;1.70;;
43620;SDS011;29213;50.770;7.298;2023-01-16T16:31:45;2.33;;;1.20;;
43620;SDS011;29213;50.770;7.298;2023-01-16T16:34:15;4.18;;;2.63;;
43620;SDS011;29213;50.770;7.298;2023-01-16T16:36:54;4.57;;;3.35;;
43620;SDS011;29213;50.770;7.298;2023-01-16T16:39:29;3.55;;;2.03;;
43620;SDS011;29213;50.770;7.298;2023-01-16T16:47:33;6.38;;;3.17;;
43620;SDS011;29213;50.770;7.298;2023-01-16T16:50:00;4.70;;;2.42;;
43620;SDS011;29213;50.770;7.298;2023-01-16T16:52:31;4.55;;;2.28;;
43620;SDS011;29213;50.770;7.298;2023-01-16T16:55:02;4.13;;;2.00;;
43620;SDS011;29213;50.770;7.298;2023-01-16T16:57:34;4.13;;;1.60;;
43620;SDS011;29213;50.770;7.298;2023-01-16T17:00:13;4.43;;;2.15;;
43620;SDS011;29213;50.770;7.298;2023-01-16T17:02:42;4.05;;;1.98;;
43620;SDS011;29213;50.770;7.298;2023-01-16T17:05:11;3.15;;;1.42;;
43620;SDS011;29213;50.770;7.298;2023-01-16T17:07:39;2.35;;;1.13;;
43620;SDS011;29213;50.770;7.298;2023-01-16T17:10:10;2.20;;;1.15;;
43620;SDS011;29213;50.770;7.298;2023-01-16T17:12:36;2.97;;;1.50;;
43620;SDS011;29213;50.770;7.298;2023-01-16T17:15:04;2.53;;;1.30;;
43620;SDS011;29213;50.770;7.298;2023-01-16T17:17:30;1.92;;;0.90;;
43620;SDS011;29213;50.770;7.298;2023-01-16T17:19:56;2.72;;;0.80;;
43620;SDS011;29213;50.770;7.298;2023-01-16T17:22:21;2.28;;;1.20;;
43620;SDS011;29213;50.770;7.298;2023-01-16T17:24:47;2.80;;;1.08;;
43620;SDS011;29213;50.770;7.298;2023-01-16T17:27:15;3.17;;;1.10;;
43620;SDS011;29213;50.770;7.298;2023-01-16T17:29:41;2.22;;;1.02;;